CheckWX is a tool to help pilots better visualize weather data.  It is not intended as a substitute for an official pre-flight weather briefing.

12:01:59 UTC

EHGR TAF
Gilze Rijen Air Base Airport
Breda, The Netherlands
TAF EHGR 120943Z 1210/1222 20009KT 9999 SCT005 BECMG 1210/1212 19010G20KT SCT012 BECMG 1213/1216 16015G27KT SCT020 BECMG 1220/1222 -RA SCT018 OVC030

Dec-12@
10:00 UTC

Dec-12 @ 10:00 UTC

Dec-12@
22:00 UTC

Dec-12 @ 22:00 UTC

TAF EHGR 120943Z 1210/1222 20009KT 9999 SCT005
Wind
  • 200° at 9 KTS
Cloud Levels
  • Scattered at 500' AGL

Dec-12@
10:00 UTC

Dec-12 @ 10:00 UTC

Dec-12@
13:00 UTC

Dec-12 @ 13:00 UTC

BECMG 1210/1212 19010G20KT SCT012

Becoming

Becoming Conditions expected by Thu, Dec 12, 2019 @ 12:00 UTC

Wind
  • 190° at 10 KTS
  • {Gusting to 20 KTS
Cloud Levels
  • Scattered at 1,200' AGL

Dec-12@
13:00 UTC

Dec-12 @ 13:00 UTC

Dec-12@
20:00 UTC

Dec-12 @ 20:00 UTC

BECMG 1213/1216 16015G27KT SCT020

Becoming

Becoming Conditions expected by Thu, Dec 12, 2019 @ 16:00 UTC

Wind
  • 160° at 15 KTS
  • {Gusting to 27 KTS
Cloud Levels
  • Scattered at 2,000' AGL

Dec-12@
20:00 UTC

Dec-12 @ 20:00 UTC

Dec-12@
22:00 UTC

Dec-12 @ 22:00 UTC

BECMG 1220/1222 -RA SCT018 OVC030

Becoming

Becoming Conditions expected by Thu, Dec 12, 2019 @ 22:00 UTC

Wind
  • 160° at 15 KTS
  • {Gusting to 27 KTS
Conditions
Light Rain
Cloud Levels
  • Scattered at 1,800' AGL
  • Overcast at 3,000' AGL